createdAt,value
2018-01-15T07:26:18.798Z,13.35
2018-01-15T07:29:36.106Z,9.50
2018-01-15T07:31:07.705Z,8.40
2018-01-15T07:31:21.491Z,8.26
2018-01-15T07:31:35.312Z,8.09
2018-01-15T07:31:49.054Z,7.97
2018-01-15T07:32:02.714Z,7.88
2018-01-15T07:32:16.564Z,7.81
2018-01-15T07:32:30.354Z,7.75
2018-01-15T07:32:44.014Z,7.68
2018-01-15T07:32:57.799Z,7.59
2018-01-15T07:33:11.453Z,7.46
2018-01-15T07:33:25.351Z,7.33
2018-01-15T07:33:39.367Z,7.28
2018-01-15T07:33:53.285Z,7.15
2018-01-15T07:34:07.129Z,7.04
2018-01-15T07:34:20.881Z,6.95
2018-01-15T07:34:34.552Z,6.90
2018-01-15T07:34:48.458Z,6.84
2018-01-15T07:35:02.108Z,6.79
2018-01-15T07:35:15.980Z,6.72
2018-01-15T07:35:29.796Z,6.63
2018-01-15T07:35:43.515Z,6.47
2018-01-15T07:35:57.334Z,6.38
2018-01-15T07:36:10.986Z,6.32
2018-01-15T07:36:24.678Z,6.18
2018-01-15T07:36:38.757Z,6.16
2018-01-15T07:36:52.531Z,6.11
2018-01-15T07:37:06.253Z,6.01
2018-01-15T07:37:20.278Z,5.94
2018-01-15T07:37:34.141Z,5.88
2018-01-15T07:37:47.963Z,5.84
2018-01-15T07:38:01.721Z,5.79
2018-01-15T07:38:15.523Z,5.79
2018-01-15T07:38:29.267Z,5.76
2018-01-15T07:38:43.017Z,5.74
2018-01-15T07:38:56.883Z,5.71
2018-01-15T07:39:10.637Z,5.66
2018-01-15T07:39:24.515Z,5.61
2018-01-15T07:39:38.263Z,5.60
2018-01-15T07:39:52.048Z,5.57
2018-01-15T07:40:05.872Z,5.52
2018-01-15T07:40:19.709Z,5.51
2018-01-15T07:40:33.511Z,5.46
2018-01-15T07:40:47.456Z,5.44
2018-01-15T07:41:01.261Z,5.42
2018-01-15T07:41:15.156Z,5.41
2018-01-15T07:41:28.908Z,5.39
2018-01-15T07:41:42.815Z,5.32
2018-01-15T07:41:56.643Z,5.25
2018-01-15T07:42:10.484Z,5.21
2018-01-15T07:42:24.455Z,5.20
2018-01-15T07:42:38.214Z,5.20
2018-01-15T07:42:52.027Z,5.16
2018-01-15T07:43:05.918Z,5.13
2018-01-15T07:43:19.606Z,5.13
2018-01-15T07:43:33.295Z,5.14
2018-01-15T07:43:47.068Z,5.09
2018-01-15T07:44:00.972Z,5.08
2018-01-15T07:44:14.749Z,5.07
2018-01-15T07:44:28.627Z,5.04
2018-01-15T07:44:42.608Z,5.01
2018-01-15T07:44:56.608Z,5.00
2018-01-15T07:45:10.311Z,4.99
2018-01-15T07:45:24.023Z,4.97
2018-01-15T07:45:37.859Z,4.97
2018-01-15T07:45:51.689Z,4.99
2018-01-15T07:46:05.396Z,4.99
2018-01-15T07:46:19.213Z,4.99
2018-01-15T07:46:32.974Z,4.99
2018-01-15T07:46:46.931Z,4.99
2018-01-15T07:47:00.680Z,4.97
2018-01-15T07:47:14.541Z,4.93
2018-01-15T07:47:28.545Z,4.94
2018-01-15T07:47:42.299Z,4.92
2018-01-15T07:47:56.095Z,4.90
2018-01-15T07:48:09.905Z,4.90
2018-01-15T07:48:23.742Z,4.91
2018-01-15T07:48:38.308Z,4.91
2018-01-15T07:48:52.343Z,4.91
2018-01-15T07:49:06.264Z,4.88
2018-01-15T07:49:19.927Z,4.87
2018-01-15T07:49:33.889Z,4.87
2018-01-15T07:49:47.701Z,4.87
2018-01-15T07:50:02.378Z,4.87
2018-01-15T07:50:16.027Z,4.86
2018-01-15T07:50:30.238Z,4.87
2018-01-15T07:50:43.823Z,4.85
2018-01-15T07:50:57.574Z,4.85
2018-01-15T07:51:11.300Z,4.86
2018-01-15T07:51:25.263Z,4.86
2018-01-15T07:51:39.102Z,4.86
2018-01-15T07:51:53.005Z,4.87
2018-01-15T07:52:06.842Z,4.87
2018-01-15T07:52:20.544Z,4.87
2018-01-15T07:52:34.301Z,4.86
2018-01-15T07:52:48.063Z,4.87
2018-01-15T07:53:01.817Z,4.88
2018-01-15T07:53:15.431Z,4.87
2018-01-15T07:53:29.604Z,4.86
2018-01-15T07:53:43.388Z,4.86
2018-01-15T07:53:57.143Z,4.84
2018-01-15T07:54:10.829Z,4.83
2018-01-15T07:54:24.630Z,4.83
2018-01-15T07:54:38.358Z,4.83
2018-01-15T07:54:52.334Z,4.84
2018-01-15T07:55:05.995Z,4.84
2018-01-15T07:55:19.720Z,4.84
2018-01-15T07:55:33.411Z,4.84
2018-01-15T07:55:47.186Z,4.84
2018-01-15T07:56:01.048Z,4.85
2018-01-15T07:56:14.885Z,4.86
2018-01-15T07:56:28.879Z,4.87
2018-01-15T07:56:42.721Z,4.88
2018-01-15T07:56:56.588Z,4.88
2018-01-15T07:57:10.231Z,4.90
2018-01-15T07:57:23.963Z,4.90
2018-01-15T07:57:37.862Z,4.89
2018-01-15T07:57:51.540Z,4.89
2018-01-15T07:58:05.543Z,4.90
2018-01-15T07:58:19.498Z,4.90
2018-01-15T07:58:33.315Z,4.92
2018-01-15T07:58:47.574Z,4.92
2018-01-15T07:59:01.425Z,4.92
2018-01-15T07:59:15.204Z,4.93
2018-01-15T07:59:29.109Z,4.93
2018-01-15T07:59:42.658Z,4.93
2018-01-15T07:59:56.438Z,4.90
2018-01-15T08:00:10.123Z,4.92
2018-01-15T08:00:24.067Z,4.91
2018-01-15T08:00:37.852Z,4.90
2018-01-15T08:00:51.522Z,4.89
2018-01-15T08:01:05.268Z,4.88
2018-01-15T08:01:19.152Z,4.88
2018-01-15T08:01:32.970Z,4.88
2018-01-15T08:01:46.894Z,4.89
2018-01-15T08:02:00.577Z,4.88
2018-01-15T08:02:14.248Z,4.88
2018-01-15T08:02:27.892Z,4.88
2018-01-15T08:02:41.560Z,4.89
2018-01-15T08:02:55.180Z,4.89
2018-01-15T08:03:08.885Z,4.89
2018-01-15T08:03:22.639Z,4.91
2018-01-15T08:03:36.488Z,4.92
2018-01-15T08:03:50.253Z,4.91
2018-01-15T08:04:03.809Z,4.92
2018-01-15T08:04:17.480Z,4.91
2018-01-15T08:04:31.297Z,4.91
2018-01-15T08:04:45.139Z,4.90
2018-01-15T08:04:58.835Z,4.91
2018-01-15T08:05:12.540Z,4.89
2018-01-15T08:05:26.387Z,4.89
2018-01-15T08:05:40.097Z,4.90
2018-01-15T08:05:53.907Z,4.91
2018-01-15T08:06:07.656Z,4.92
2018-01-15T08:06:21.500Z,4.93
2018-01-15T08:06:36.111Z,4.94
2018-01-15T08:06:49.838Z,4.95
2018-01-15T08:07:03.704Z,4.96
2018-01-15T08:07:17.470Z,4.97
2018-01-15T08:07:31.312Z,4.97
2018-01-15T08:07:45.004Z,4.98
2018-01-15T08:07:58.884Z,4.98
2018-01-15T08:08:12.775Z,4.98
2018-01-15T08:08:26.568Z,4.98
2018-01-15T08:08:40.367Z,4.99
2018-01-15T08:08:54.153Z,4.99
2018-01-15T08:09:07.980Z,4.99
2018-01-15T08:09:22.509Z,4.99
2018-01-15T08:09:36.214Z,4.98
2018-01-15T08:09:49.852Z,4.99
2018-01-15T08:10:03.568Z,4.99
2018-01-15T08:10:17.419Z,4.99
2018-01-15T08:10:31.320Z,4.98
2018-01-15T08:10:45.198Z,4.98
2018-01-15T08:10:59.001Z,4.98
2018-01-15T08:11:12.844Z,4.97
2018-01-15T08:11:26.507Z,4.97
2018-01-15T08:11:40.318Z,4.98
2018-01-15T08:11:54.362Z,4.97
2018-01-15T08:12:08.104Z,4.97
2018-01-15T08:12:21.938Z,4.97
2018-01-15T08:12:35.749Z,4.98
2018-01-15T08:12:49.587Z,4.98
2018-01-15T08:13:03.275Z,4.97
2018-01-15T08:13:17.141Z,4.95
2018-01-15T08:13:30.908Z,4.94
2018-01-15T08:13:44.688Z,4.95
2018-01-15T08:13:58.462Z,4.95
2018-01-15T08:14:12.087Z,4.96
2018-01-15T08:14:25.814Z,4.96
2018-01-15T08:14:39.520Z,4.97
2018-01-15T08:14:53.387Z,4.96
2018-01-15T08:15:07.278Z,4.97
2018-01-15T08:15:21.130Z,4.99
2018-01-15T08:15:35.036Z,4.98
2018-01-15T08:15:48.687Z,4.98
2018-01-15T08:16:02.370Z,4.97
2018-01-15T08:16:15.975Z,4.97
2018-01-15T08:16:29.769Z,4.97
2018-01-15T08:16:43.618Z,4.98
2018-01-15T08:16:57.287Z,4.99
2018-01-15T08:17:10.983Z,4.99
2018-01-15T08:17:24.683Z,5.01
2018-01-15T08:17:38.452Z,5.01
2018-01-15T08:17:52.254Z,4.99
2018-01-15T08:18:06.067Z,4.99
2018-01-15T08:18:19.793Z,4.98
2018-01-15T08:18:33.643Z,4.98
2018-01-15T08:18:47.301Z,4.97
2018-01-15T08:19:01.034Z,4.98
2018-01-15T08:19:14.863Z,4.99
2018-01-15T08:19:28.801Z,5.00
2018-01-15T08:19:42.392Z,5.01
2018-01-15T08:19:56.214Z,5.01
2018-01-15T08:20:09.913Z,5.01
2018-01-15T08:20:23.703Z,5.03
2018-01-15T08:20:37.339Z,5.04
2018-01-15T08:20:51.536Z,5.04
2018-01-15T08:21:05.545Z,5.06
2018-01-15T08:21:19.377Z,5.20
2018-01-15T08:21:32.979Z,5.33
2018-01-15T08:21:46.654Z,5.45
2018-01-15T08:22:00.385Z,5.56
2018-01-15T08:22:14.457Z,5.65
2018-01-15T08:22:28.234Z,5.74
2018-01-15T08:22:42.067Z,5.82
2018-01-15T08:22:55.785Z,5.88
2018-01-15T08:23:09.386Z,5.94
2018-01-15T08:23:23.150Z,6.00
2018-01-15T08:23:36.845Z,6.05
2018-01-15T08:23:50.577Z,6.10
2018-01-15T08:24:04.358Z,6.13
2018-01-15T08:24:18.180Z,6.16
2018-01-15T08:24:31.915Z,6.19
2018-01-15T08:24:45.660Z,6.21
2018-01-15T08:24:59.488Z,6.23
2018-01-15T08:25:13.227Z,6.25
2018-01-15T08:25:26.948Z,6.26
2018-01-15T08:25:40.755Z,6.27
2018-01-15T08:25:54.512Z,6.28
2018-01-15T08:26:08.405Z,6.28
2018-01-15T08:26:22.327Z,6.29
2018-01-15T08:26:36.257Z,6.30
2018-01-15T08:26:50.242Z,6.30
2018-01-15T08:27:03.967Z,6.30
2018-01-15T08:27:17.804Z,6.29
2018-01-15T08:27:31.728Z,6.30
2018-01-15T08:27:45.564Z,6.29
2018-01-15T08:27:59.342Z,6.29
2018-01-15T08:28:13.094Z,6.29
2018-01-15T08:28:26.771Z,6.28
2018-01-15T08:28:40.385Z,6.28
2018-01-15T08:28:54.247Z,6.27
2018-01-15T08:29:07.992Z,6.26
2018-01-15T08:29:21.906Z,6.26
2018-01-15T08:29:35.767Z,6.25
2018-01-15T08:29:49.449Z,6.24
2018-01-15T08:30:03.085Z,6.23
2018-01-15T08:30:16.824Z,6.23
2018-01-15T08:30:31.054Z,6.22
2018-01-15T08:30:44.893Z,6.22
2018-01-15T08:30:58.867Z,6.21
2018-01-15T08:31:12.806Z,6.20
2018-01-15T08:31:26.574Z,6.19
2018-01-15T08:31:40.555Z,6.19
2018-01-15T08:31:54.369Z,6.18
2018-01-15T08:32:08.774Z,6.18
2018-01-15T08:32:22.655Z,6.17
2018-01-15T08:32:36.461Z,6.17
2018-01-15T08:32:50.660Z,6.16
2018-01-15T08:33:04.654Z,6.16
2018-01-15T08:33:18.659Z,6.16
2018-01-15T08:33:32.373Z,6.15
2018-01-15T08:33:46.240Z,6.14
2018-01-15T08:34:00.048Z,6.14
2018-01-15T08:34:13.751Z,6.14
2018-01-15T08:34:27.484Z,6.13
2018-01-15T08:34:41.320Z,6.13
2018-01-15T08:34:55.294Z,6.13
2018-01-15T08:35:09.155Z,6.11
2018-01-15T08:35:23.120Z,6.11
2018-01-15T08:35:37.040Z,6.11
2018-01-15T08:35:50.797Z,6.10
2018-01-15T08:36:04.675Z,6.10
2018-01-15T08:36:18.398Z,6.10
2018-01-15T08:36:32.078Z,6.10
2018-01-15T08:36:45.872Z,6.10
2018-01-15T08:36:59.629Z,6.09
2018-01-15T08:37:13.694Z,6.08
2018-01-15T08:37:27.328Z,6.08
2018-01-15T08:37:41.329Z,6.08
2018-01-15T08:37:55.211Z,6.07
2018-01-15T08:38:08.871Z,6.07
2018-01-15T08:38:22.648Z,6.07
2018-01-15T08:38:36.516Z,6.06
2018-01-15T08:38:50.427Z,6.06
2018-01-15T08:39:03.822Z,6.06
2018-01-15T08:39:17.559Z,6.06
2018-01-15T08:39:31.250Z,6.06
2018-01-15T08:39:45.169Z,6.06
2018-01-15T08:39:58.880Z,6.05
2018-01-15T08:40:12.595Z,6.05
2018-01-15T08:40:26.103Z,6.06
2018-01-15T08:40:39.933Z,6.05
2018-01-15T08:40:53.692Z,6.05
2018-01-15T08:41:07.638Z,6.05
2018-01-15T08:41:21.409Z,6.05
2018-01-15T08:41:35.127Z,6.05
2018-01-15T08:41:48.804Z,6.05
2018-01-15T08:42:02.506Z,6.05
2018-01-15T08:42:16.328Z,6.05
2018-01-15T08:42:30.170Z,6.05
2018-01-15T08:42:43.874Z,6.05
2018-01-15T08:42:57.539Z,6.04
2018-01-15T08:43:11.364Z,6.05
2018-01-15T08:43:25.092Z,6.05
2018-01-15T08:43:38.825Z,6.05
2018-01-15T08:43:52.528Z,6.05
2018-01-15T08:44:06.202Z,6.04
2018-01-15T08:44:20.095Z,6.04
2018-01-15T08:44:33.936Z,6.04
2018-01-15T08:44:47.740Z,6.04
2018-01-15T08:45:01.392Z,6.03
2018-01-15T08:45:15.142Z,6.04
2018-01-15T08:45:28.836Z,6.03
2018-01-15T08:45:42.767Z,6.04
2018-01-15T08:45:56.262Z,6.04
2018-01-15T08:46:10.270Z,6.03
2018-01-15T08:46:24.053Z,6.03
2018-01-15T08:46:37.715Z,6.03
2018-01-15T08:46:51.419Z,6.03
2018-01-15T08:47:05.139Z,6.03
2018-01-15T08:47:18.979Z,6.03
2018-01-15T08:47:32.777Z,6.03
2018-01-15T08:47:46.503Z,6.03
2018-01-15T08:48:00.417Z,6.04
2018-01-15T08:48:14.298Z,6.03
2018-01-15T08:48:27.930Z,6.03
2018-01-15T08:48:41.616Z,6.03
2018-01-15T08:48:55.443Z,6.03
2018-01-15T08:49:09.139Z,6.03
2018-01-15T08:49:23.025Z,6.03
2018-01-15T08:49:36.717Z,6.03
2018-01-15T08:49:50.575Z,6.04
2018-01-15T08:50:04.254Z,6.03
2018-01-15T08:50:18.121Z,6.04
2018-01-15T08:50:32.102Z,6.04
2018-01-15T08:50:45.975Z,6.04
2018-01-15T08:50:59.730Z,6.04
2018-01-15T08:51:13.483Z,6.05
2018-01-15T08:51:27.419Z,6.05
2018-01-15T08:51:41.194Z,6.05
2018-01-15T08:51:54.894Z,6.05
2018-01-15T08:52:08.858Z,6.06
2018-01-15T08:52:22.518Z,6.06
2018-01-15T08:52:36.198Z,6.06
2018-01-15T08:52:49.906Z,6.06
2018-01-15T08:53:03.641Z,6.06
2018-01-15T08:53:17.394Z,6.06
2018-01-15T08:53:31.115Z,6.06
2018-01-15T08:53:44.915Z,6.07
2018-01-15T08:53:58.623Z,6.07
2018-01-15T08:54:12.337Z,6.07
2018-01-15T08:54:26.075Z,6.08
2018-01-15T08:54:39.695Z,6.08
2018-01-15T08:54:53.735Z,6.07
2018-01-15T08:55:07.430Z,6.07
2018-01-15T08:55:21.266Z,6.08
2018-01-15T08:55:35.120Z,6.08
2018-01-15T08:55:48.884Z,6.08
2018-01-15T08:56:02.598Z,6.08
2018-01-15T08:56:16.323Z,6.09
2018-01-15T08:56:29.992Z,6.09
2018-01-15T08:56:43.825Z,6.09
2018-01-15T08:56:57.608Z,6.10
2018-01-15T08:57:11.432Z,6.09
2018-01-15T08:57:25.366Z,6.10
2018-01-15T08:57:39.123Z,6.10
2018-01-15T08:57:53.129Z,6.10
2018-01-15T08:58:07.015Z,6.10
2018-01-15T08:58:21.027Z,6.11
2018-01-15T08:58:34.888Z,6.12
2018-01-15T08:58:48.763Z,6.12
2018-01-15T08:59:02.537Z,6.12
2018-01-15T08:59:16.390Z,6.12
2018-01-15T08:59:30.195Z,6.12
2018-01-15T08:59:44.048Z,6.12
2018-01-15T08:59:57.769Z,6.13
2018-01-15T09:00:11.618Z,6.13
2018-01-15T09:00:25.432Z,6.13
2018-01-15T09:00:39.323Z,6.14
2018-01-15T09:00:53.338Z,6.13
2018-01-15T09:01:07.015Z,6.14
2018-01-15T09:01:20.831Z,6.14
2018-01-15T09:01:34.532Z,6.14
2018-01-15T09:01:48.443Z,6.15
2018-01-15T09:02:02.120Z,6.14
2018-01-15T09:02:15.763Z,6.15
2018-01-15T09:02:29.693Z,6.15
2018-01-15T09:02:43.440Z,6.16
2018-01-15T09:02:57.163Z,6.16
2018-01-15T09:03:10.986Z,6.16
2018-01-15T09:03:24.686Z,6.16
2018-01-15T09:03:38.585Z,6.16
2018-01-15T09:03:52.441Z,6.16
2018-01-15T09:04:06.316Z,6.17
2018-01-15T09:04:20.181Z,6.17
2018-01-15T09:04:34.032Z,6.17
2018-01-15T09:04:47.859Z,6.17
2018-01-15T09:05:01.680Z,6.17
2018-01-15T09:05:15.552Z,6.17
2018-01-15T09:05:29.279Z,6.18
2018-01-15T09:05:43.101Z,6.18
2018-01-15T09:05:56.719Z,6.18
2018-01-15T09:06:10.436Z,6.19
2018-01-15T09:06:24.176Z,6.19
2018-01-15T09:06:37.979Z,6.20
2018-01-15T09:06:51.647Z,6.20
2018-01-15T09:07:05.363Z,6.20
2018-01-15T09:07:19.126Z,6.20
2018-01-15T09:07:33.015Z,6.20
2018-01-15T09:07:46.775Z,6.21
2018-01-15T09:08:00.474Z,6.21
2018-01-15T09:08:14.272Z,6.21
2018-01-15T09:08:28.035Z,6.22
2018-01-15T09:08:42.347Z,6.21
2018-01-15T09:08:56.233Z,6.22
2018-01-15T09:09:09.897Z,6.22
2018-01-15T09:09:23.717Z,6.21
2018-01-15T09:09:37.545Z,6.22
2018-01-15T09:09:51.267Z,6.22
2018-01-15T09:10:04.994Z,6.22
2018-01-15T09:10:18.611Z,6.23
2018-01-15T09:10:32.278Z,6.22
2018-01-15T09:10:45.979Z,6.23
2018-01-15T09:10:59.768Z,6.23
2018-01-15T09:11:13.433Z,6.23
2018-01-15T09:11:27.192Z,6.23
2018-01-15T09:11:40.937Z,6.23
2018-01-15T09:11:54.745Z,6.24
2018-01-15T09:12:08.471Z,6.23
2018-01-15T09:12:22.183Z,6.24
2018-01-15T09:12:35.978Z,6.24
2018-01-15T09:12:49.749Z,6.24
2018-01-15T09:13:03.330Z,6.24
2018-01-15T09:13:17.279Z,6.25
2018-01-15T09:13:31.111Z,6.25
2018-01-15T09:13:45.004Z,6.25
2018-01-15T09:13:58.653Z,6.25
2018-01-15T09:14:12.344Z,6.26
2018-01-15T09:14:26.107Z,6.26
2018-01-15T09:14:39.920Z,6.26
2018-01-15T09:14:53.733Z,6.27
2018-01-15T09:15:07.539Z,6.27
2018-01-15T09:15:21.346Z,6.26
2018-01-15T09:15:35.293Z,6.27
2018-01-15T09:15:49.146Z,6.27
2018-01-15T09:16:02.801Z,6.27
2018-01-15T09:16:16.561Z,6.27
2018-01-15T09:16:30.210Z,6.27
2018-01-15T09:16:43.894Z,6.28
2018-01-15T09:16:57.620Z,6.28
2018-01-15T09:17:11.441Z,6.28
2018-01-15T09:17:25.369Z,6.28
2018-01-15T09:17:39.139Z,6.28
2018-01-15T09:17:52.870Z,6.29
2018-01-15T09:18:06.661Z,6.28
2018-01-15T09:18:20.375Z,6.29
2018-01-15T09:18:34.177Z,6.29
2018-01-15T09:18:48.057Z,6.30
2018-01-15T09:19:01.791Z,6.29
2018-01-15T09:19:15.631Z,6.30
2018-01-15T09:19:29.554Z,6.31
2018-01-15T09:19:43.300Z,6.31
2018-01-15T09:19:57.020Z,6.31
2018-01-15T09:20:10.810Z,6.31
2018-01-15T09:20:24.594Z,6.32
2018-01-15T09:20:38.329Z,6.32
2018-01-15T09:20:52.113Z,6.32
2018-01-15T09:21:05.858Z,6.33
2018-01-15T09:21:19.720Z,6.33
2018-01-15T09:21:33.453Z,6.33
2018-01-15T09:21:47.235Z,6.34
2018-01-15T09:22:01.075Z,6.34
2018-01-15T09:22:15.373Z,6.34
2018-01-15T09:22:29.438Z,6.35
2018-01-15T09:22:43.169Z,6.35
2018-01-15T09:22:57.090Z,6.35
2018-01-15T09:23:10.968Z,6.36
2018-01-15T09:23:24.635Z,6.36
2018-01-15T09:23:38.479Z,6.36
2018-01-15T09:23:52.299Z,6.37
2018-01-15T09:24:06.000Z,6.37
2018-01-15T09:24:19.853Z,6.37
2018-01-15T09:24:33.540Z,6.37
2018-01-15T09:24:47.434Z,6.38
2018-01-15T09:25:01.262Z,6.38
2018-01-15T09:25:15.083Z,6.38
2018-01-15T09:25:28.799Z,6.39
2018-01-15T09:25:42.413Z,6.39
2018-01-15T09:25:56.028Z,6.40
2018-01-15T09:26:09.719Z,6.40
2018-01-15T09:26:23.563Z,6.41
2018-01-15T09:26:37.191Z,6.41
2018-01-15T09:26:50.853Z,6.42
2018-01-15T09:27:04.672Z,6.42
2018-01-15T09:27:18.445Z,6.42
2018-01-15T09:27:32.158Z,6.43
2018-01-15T09:27:45.848Z,6.44
2018-01-15T09:27:59.542Z,6.44
2018-01-15T09:28:13.282Z,6.45
2018-01-15T09:28:26.929Z,6.45
2018-01-15T09:28:40.535Z,6.46
2018-01-15T09:28:54.241Z,6.47
2018-01-15T09:29:08.042Z,6.47
2018-01-15T09:29:21.812Z,6.48
2018-01-15T09:29:35.443Z,6.48
2018-01-15T09:29:49.330Z,6.48
2018-01-15T09:30:02.996Z,6.49
2018-01-15T09:30:16.736Z,6.50
2018-01-15T09:30:30.542Z,6.50
2018-01-15T09:30:44.551Z,6.51
2018-01-15T09:30:58.299Z,6.51
2018-01-15T09:31:11.972Z,6.52
2018-01-15T09:31:25.695Z,6.52
2018-01-15T09:31:39.456Z,6.52
2018-01-15T09:31:53.279Z,6.53
2018-01-15T09:32:07.073Z,6.54
2018-01-15T09:32:20.800Z,6.54
2018-01-15T09:32:34.418Z,6.55
2018-01-15T09:32:48.213Z,6.55
2018-01-15T09:33:02.071Z,6.56
2018-01-15T09:33:16.144Z,6.56
2018-01-15T09:33:30.055Z,6.57
2018-01-15T09:33:43.743Z,6.57
2018-01-15T09:33:57.531Z,6.58
2018-01-15T09:34:11.261Z,6.58
2018-01-15T09:34:25.042Z,6.58
2018-01-15T09:34:38.854Z,6.59
2018-01-15T09:34:52.972Z,6.59
2018-01-15T09:35:06.653Z,6.60
2018-01-15T09:35:20.516Z,6.60
2018-01-15T09:35:34.346Z,6.60
2018-01-15T09:35:48.221Z,6.61
2018-01-15T09:36:01.716Z,6.62
2018-01-15T09:36:15.527Z,6.62
2018-01-15T09:36:29.310Z,6.62
2018-01-15T09:36:43.052Z,6.63
2018-01-15T09:36:56.798Z,6.62
2018-01-15T09:37:10.540Z,6.63
2018-01-15T09:37:24.230Z,6.63
2018-01-15T09:37:37.902Z,6.64
2018-01-15T09:37:51.730Z,6.64
2018-01-15T09:38:05.874Z,6.65
2018-01-15T09:38:19.608Z,6.65
2018-01-15T09:38:33.416Z,6.65
2018-01-15T09:38:47.042Z,6.66
2018-01-15T09:39:00.947Z,6.66
2018-01-15T09:39:14.829Z,6.66
2018-01-15T09:39:28.552Z,6.66
2018-01-15T09:39:42.152Z,6.67
2018-01-15T09:39:55.831Z,6.67
2018-01-15T09:40:09.493Z,6.67
2018-01-15T09:40:23.083Z,6.68
2018-01-15T09:40:36.792Z,6.68
2018-01-15T09:40:50.670Z,6.69
2018-01-15T09:41:04.538Z,6.69
2018-01-15T09:41:18.302Z,6.70
2018-01-15T09:41:32.048Z,6.70
2018-01-15T09:41:45.830Z,6.70
2018-01-15T09:41:59.614Z,6.71
2018-01-15T09:42:13.399Z,6.71
2018-01-15T09:42:27.206Z,6.71
2018-01-15T09:42:40.872Z,6.72
2018-01-15T09:42:54.764Z,6.72
2018-01-15T09:43:08.538Z,6.72
2018-01-15T09:43:22.373Z,6.73
2018-01-15T09:43:36.194Z,6.73
2018-01-15T09:43:49.937Z,6.74
2018-01-15T09:44:03.740Z,6.74
2018-01-15T09:44:17.511Z,6.74
2018-01-15T09:44:31.349Z,6.75
2018-01-15T09:44:45.212Z,6.75
2018-01-15T09:44:59.127Z,6.75
2018-01-15T09:45:12.846Z,6.76
2018-01-15T09:45:26.503Z,6.76
2018-01-15T09:45:40.158Z,6.76
2018-01-15T09:45:54.021Z,6.77
2018-01-15T09:46:07.900Z,6.76
2018-01-15T09:46:21.979Z,6.78
2018-01-15T09:46:35.863Z,6.77
2018-01-15T09:46:49.655Z,6.77
2018-01-15T09:47:03.620Z,6.78
2018-01-15T09:47:17.482Z,6.78
2018-01-15T09:47:31.324Z,6.79
2018-01-15T09:47:44.965Z,6.79
2018-01-15T09:47:58.885Z,6.78
2018-01-15T09:48:12.563Z,6.79
2018-01-15T09:48:26.233Z,6.79
2018-01-15T09:48:40.122Z,6.79
2018-01-15T09:48:53.864Z,6.79
2018-01-15T09:49:07.955Z,6.80
2018-01-15T09:49:21.821Z,6.80
2018-01-15T09:49:35.707Z,6.81
2018-01-15T09:49:49.575Z,6.81
2018-01-15T09:50:03.268Z,6.82
2018-01-15T09:50:16.910Z,6.81
2018-01-15T09:50:30.841Z,6.83
2018-01-15T09:50:45.004Z,6.82
2018-01-15T09:50:58.790Z,6.83
2018-01-15T09:51:12.577Z,6.84
2018-01-15T09:51:26.364Z,6.84
2018-01-15T09:51:40.019Z,6.84
2018-01-15T09:51:53.758Z,6.85
2018-01-15T09:52:07.405Z,6.85
2018-01-15T09:52:21.226Z,6.86
2018-01-15T09:52:34.920Z,6.87
2018-01-15T09:52:48.730Z,6.87
2018-01-15T09:53:02.514Z,6.87
2018-01-15T09:53:16.345Z,6.88
2018-01-15T09:53:29.988Z,6.88
2018-01-15T09:53:43.897Z,6.88
2018-01-15T09:53:57.768Z,6.89
2018-01-15T09:54:11.461Z,6.89
2018-01-15T09:54:25.193Z,6.90
2018-01-15T09:54:39.093Z,6.90
2018-01-15T09:54:53.056Z,6.90
2018-01-15T09:55:06.934Z,6.91
2018-01-15T09:55:20.888Z,6.92
2018-01-15T09:55:34.515Z,6.92
2018-01-15T09:55:48.278Z,6.92
2018-01-15T09:56:02.167Z,6.93
2018-01-15T09:56:15.982Z,6.94
2018-01-15T09:56:29.801Z,6.94
2018-01-15T09:56:44.209Z,6.95
2018-01-15T09:56:58.020Z,6.96
2018-01-15T09:57:11.845Z,6.97
2018-01-15T09:57:25.675Z,6.98
2018-01-15T09:57:39.464Z,6.98
2018-01-15T09:57:53.580Z,6.99
2018-01-15T09:58:07.722Z,7.00
2018-01-15T09:58:21.342Z,7.00
2018-01-15T09:58:35.197Z,7.01
2018-01-15T09:58:49.122Z,7.02
2018-01-15T09:59:02.763Z,7.03
2018-01-15T09:59:16.456Z,7.03
2018-01-15T09:59:30.231Z,7.04
2018-01-15T09:59:44.030Z,7.05
2018-01-15T09:59:57.790Z,7.06
2018-01-15T10:00:11.553Z,7.07
2018-01-15T10:00:25.247Z,7.07
2018-01-15T10:00:38.941Z,7.08
2018-01-15T10:00:52.622Z,7.08
2018-01-15T10:01:06.427Z,7.10
2018-01-15T10:01:20.261Z,7.10
2018-01-15T10:01:34.045Z,7.10
2018-01-15T10:01:47.903Z,7.11
2018-01-15T10:02:01.603Z,7.12
2018-01-15T10:02:15.685Z,7.13
2018-01-15T10:02:29.412Z,7.13
2018-01-15T10:02:43.087Z,7.14
2018-01-15T10:02:56.931Z,7.14
2018-01-15T10:03:10.746Z,7.15
2018-01-15T10:03:24.527Z,7.15
2018-01-15T10:03:38.379Z,7.15
2018-01-15T10:03:52.133Z,7.16
2018-01-15T10:04:05.958Z,7.17
2018-01-15T10:04:19.847Z,7.17
2018-01-15T10:04:33.620Z,7.17
2018-01-15T10:04:47.521Z,7.18
2018-01-15T10:05:01.463Z,7.19
2018-01-15T10:05:15.270Z,7.18
2018-01-15T10:05:29.130Z,7.20
2018-01-15T10:05:42.892Z,7.20
2018-01-15T10:05:56.512Z,7.20
2018-01-15T10:06:10.340Z,7.21
2018-01-15T10:06:23.778Z,7.21
2018-01-15T10:06:37.395Z,7.21
2018-01-15T10:06:51.018Z,7.22
2018-01-15T10:07:04.643Z,7.23
2018-01-15T10:07:18.489Z,7.23
2018-01-15T10:07:32.156Z,7.24
2018-01-15T10:07:45.901Z,7.24
2018-01-15T10:07:59.559Z,7.24
2018-01-15T10:08:13.298Z,7.25
2018-01-15T10:08:27.156Z,7.26
2018-01-15T10:08:41.056Z,7.26
2018-01-15T10:08:54.774Z,7.26
2018-01-15T10:09:08.397Z,7.27
2018-01-15T10:09:22.028Z,7.27
2018-01-15T10:09:35.778Z,7.27
2018-01-15T10:09:49.548Z,7.28
2018-01-15T10:10:03.297Z,7.29
2018-01-15T10:10:17.356Z,7.28
2018-01-15T10:10:30.972Z,7.29
2018-01-15T10:10:44.699Z,7.30
2018-01-15T10:10:58.338Z,7.30
2018-01-15T10:11:11.977Z,7.30
2018-01-15T10:11:25.840Z,7.31
2018-01-15T10:11:39.602Z,7.31
2018-01-15T10:11:53.448Z,7.31
2018-01-15T10:12:07.239Z,7.31
2018-01-15T10:12:21.116Z,7.32
2018-01-15T10:12:34.787Z,7.32
2018-01-15T10:12:48.662Z,7.32
2018-01-15T10:13:02.711Z,7.32
2018-01-15T10:13:16.833Z,7.33
2018-01-15T10:13:30.555Z,7.33
2018-01-15T10:13:44.313Z,7.33
2018-01-15T10:13:58.126Z,7.33
2018-01-15T10:14:11.898Z,7.34
2018-01-15T10:14:25.597Z,7.34
2018-01-15T10:14:39.197Z,7.34
2018-01-15T10:14:52.968Z,7.34
2018-01-15T10:15:06.755Z,7.35
2018-01-15T10:15:20.426Z,7.35
2018-01-15T10:15:34.250Z,7.35
2018-01-15T10:15:48.042Z,7.35
2018-01-15T10:16:01.835Z,7.36
2018-01-15T10:16:15.506Z,7.36
2018-01-15T10:16:29.350Z,7.37
2018-01-15T10:16:43.158Z,7.36
2018-01-15T10:16:56.878Z,7.36
2018-01-15T10:17:10.684Z,7.37
2018-01-15T10:17:24.370Z,7.38
2018-01-15T10:17:38.516Z,7.38
2018-01-15T10:17:52.272Z,7.38
2018-01-15T10:18:06.009Z,7.39
2018-01-15T10:18:19.700Z,7.39
2018-01-15T10:18:33.338Z,7.39
2018-01-15T10:18:46.998Z,7.40
2018-01-15T10:19:00.620Z,7.40
2018-01-15T10:19:14.228Z,7.40
2018-01-15T10:19:27.957Z,7.40
2018-01-15T10:19:41.992Z,7.41
2018-01-15T10:19:55.706Z,7.41
2018-01-15T10:20:09.307Z,7.41
2018-01-15T10:20:23.112Z,7.42
2018-01-15T10:20:36.983Z,7.42
2018-01-15T10:20:50.542Z,7.42
2018-01-15T10:21:04.167Z,7.42
2018-01-15T10:21:17.851Z,7.42
2018-01-15T10:21:31.645Z,7.43
2018-01-15T10:21:45.362Z,7.43
2018-01-15T10:21:59.098Z,7.43
2018-01-15T10:22:12.848Z,7.44
2018-01-15T10:22:26.498Z,7.44
2018-01-15T10:22:40.166Z,7.44
2018-01-15T10:22:53.907Z,7.45
2018-01-15T10:23:07.653Z,7.45
2018-01-15T10:23:21.260Z,7.46
2018-01-15T10:23:34.862Z,7.47
2018-01-15T10:23:48.536Z,7.47
2018-01-15T10:24:02.277Z,7.48
2018-01-15T10:24:15.973Z,7.48
2018-01-15T10:24:29.797Z,7.49
2018-01-15T10:24:43.449Z,7.49
2018-01-15T10:24:57.298Z,7.50
2018-01-15T10:25:11.176Z,7.50
2018-01-15T10:25:25.021Z,7.51
2018-01-15T10:25:38.712Z,7.51
2018-01-15T10:25:52.543Z,7.51
2018-01-15T10:26:06.426Z,7.52
2018-01-15T10:26:20.128Z,7.53
2018-01-15T10:26:34.040Z,7.53
2018-01-15T10:26:47.931Z,7.53
2018-01-15T10:27:01.637Z,7.53
2018-01-15T10:27:15.365Z,7.54
2018-01-15T10:27:29.209Z,7.55
2018-01-15T10:27:42.983Z,7.55
2018-01-15T10:27:56.738Z,7.55
2018-01-15T10:28:10.386Z,7.56
2018-01-15T10:28:24.179Z,7.57
2018-01-15T10:28:37.931Z,7.57
2018-01-15T10:28:51.660Z,7.58
2018-01-15T10:29:05.422Z,7.58
2018-01-15T10:29:19.361Z,7.58
2018-01-15T10:29:33.154Z,7.59
2018-01-15T10:29:47.081Z,7.60
2018-01-15T10:30:00.912Z,7.60
2018-01-15T10:30:14.779Z,7.61
2018-01-15T10:30:28.658Z,7.61
2018-01-15T10:30:42.385Z,7.62
2018-01-15T10:30:55.998Z,7.62
2018-01-15T10:31:09.920Z,7.63
2018-01-15T10:31:23.714Z,7.64
2018-01-15T10:31:37.499Z,7.64
2018-01-15T10:31:51.279Z,7.65
2018-01-15T10:32:04.944Z,7.65
2018-01-15T10:32:18.766Z,7.66
2018-01-15T10:32:33.415Z,7.66
2018-01-15T10:32:47.105Z,7.67
2018-01-15T10:33:01.012Z,7.67
2018-01-15T10:33:14.885Z,7.68
2018-01-15T10:33:28.735Z,7.68
2018-01-15T10:33:42.497Z,7.69
2018-01-15T10:33:56.123Z,7.69
2018-01-15T10:34:09.943Z,7.70